createdAt,value
2018-03-20T00:00:23.194Z,1.37
2018-03-20T00:01:23.218Z,1.42
2018-03-20T00:02:23.243Z,1.42
2018-03-20T00:03:23.268Z,1.42
2018-03-20T00:04:23.294Z,1.33
2018-03-20T00:05:23.319Z,1.41
2018-03-20T00:06:23.348Z,1.33
2018-03-20T00:07:23.371Z,1.34
2018-03-20T00:08:23.397Z,1.36
2018-03-20T00:09:23.422Z,1.36
2018-03-20T00:10:23.448Z,1.40
2018-03-20T00:11:23.479Z,1.40
2018-03-20T00:12:23.499Z,1.44
2018-03-20T00:13:23.523Z,1.44
2018-03-20T00:14:23.549Z,1.41
2018-03-20T00:15:23.575Z,1.47
2018-03-20T00:16:23.600Z,1.45
2018-03-20T00:17:23.625Z,1.40
2018-03-20T00:18:23.650Z,1.44
2018-03-20T00:19:23.677Z,1.40
2018-03-20T00:20:23.703Z,1.47
2018-03-20T00:21:23.733Z,1.36
2018-03-20T00:22:23.753Z,1.47
2018-03-20T00:23:23.783Z,1.34
2018-03-20T00:24:23.803Z,1.40
2018-03-20T00:25:23.828Z,1.51
2018-03-20T00:26:23.854Z,1.48
2018-03-20T00:27:23.879Z,1.45
2018-03-20T00:28:23.906Z,1.42
2018-03-20T00:29:23.931Z,1.41
2018-03-20T00:30:23.956Z,1.41
2018-03-20T00:31:23.982Z,1.41
2018-03-20T00:32:24.009Z,1.40
2018-03-20T00:33:24.038Z,1.42
2018-03-20T00:34:24.058Z,1.45
2018-03-20T00:35:24.084Z,1.37
2018-03-20T00:36:24.109Z,1.40
2018-03-20T00:37:24.134Z,1.47
2018-03-20T00:38:24.160Z,1.42
2018-03-20T00:39:24.187Z,1.44
2018-03-20T00:40:24.212Z,1.41
2018-03-20T00:41:24.236Z,1.41
2018-03-20T00:42:24.262Z,1.37
2018-03-20T00:43:24.288Z,1.27
2018-03-20T00:44:24.315Z,1.40
2018-03-20T00:45:24.338Z,1.37
2018-03-20T00:46:24.368Z,1.36
2018-03-20T00:47:24.390Z,1.37
2018-03-20T00:48:24.415Z,1.30
2018-03-20T00:49:24.439Z,1.26
2018-03-20T00:50:24.470Z,1.20
2018-03-20T00:51:24.492Z,1.32
2018-03-20T00:52:24.521Z,1.23
2018-03-20T00:53:24.543Z,1.29
2018-03-20T00:54:24.569Z,1.22
2018-03-20T00:55:24.594Z,1.22
2018-03-20T00:56:24.620Z,1.22
2018-03-20T00:57:24.645Z,1.11
2018-03-20T00:58:24.671Z,1.15
2018-03-20T00:59:24.699Z,1.12
2018-03-20T01:00:24.724Z,1.16
2018-03-20T01:01:24.747Z,1.12
2018-03-20T01:02:24.772Z,1.09
2018-03-20T01:03:24.799Z,1.09
2018-03-20T01:04:24.824Z,1.09
2018-03-20T01:05:24.850Z,0.98
2018-03-20T01:06:24.875Z,0.94
2018-03-20T01:07:24.899Z,0.96
2018-03-20T01:08:24.927Z,0.93
2018-03-20T01:09:24.950Z,0.96
2018-03-20T01:10:24.977Z,0.84
2018-03-20T01:11:25.002Z,0.83
2018-03-20T01:12:25.030Z,0.88
2018-03-20T01:13:25.056Z,0.76
2018-03-20T01:14:25.078Z,0.75
2018-03-20T01:15:25.105Z,0.65
2018-03-20T01:16:25.130Z,0.65
2018-03-20T01:17:25.160Z,0.69
2018-03-20T01:18:25.223Z,0.62
2018-03-20T01:19:25.209Z,0.50
2018-03-20T01:20:25.237Z,0.53
2018-03-20T01:21:25.256Z,0.58
2018-03-20T01:22:25.284Z,0.53
2018-03-20T01:23:25.307Z,0.51
2018-03-20T01:24:25.334Z,0.51
2018-03-20T01:25:25.356Z,0.32
2018-03-20T01:26:25.383Z,0.38
2018-03-20T01:27:25.408Z,0.32
2018-03-20T01:28:25.433Z,0.32
2018-03-20T01:29:25.458Z,0.35
2018-03-20T01:30:25.483Z,0.18
2018-03-20T01:31:25.509Z,0.23
2018-03-20T01:32:25.535Z,0.10
2018-03-20T01:33:25.558Z,0.11
2018-03-20T01:34:25.585Z,0.07
2018-03-20T01:35:25.608Z,0.00
2018-03-20T01:36:25.634Z,0.02
2018-03-20T01:37:25.660Z,-0.08
2018-03-20T01:38:25.683Z,-0.21
2018-03-20T01:39:25.709Z,-0.23
2018-03-20T01:40:25.738Z,-0.19
2018-03-20T01:41:25.758Z,-0.31
2018-03-20T01:42:25.783Z,-0.31
2018-03-20T01:43:25.809Z,-0.42
2018-03-20T01:44:25.835Z,-0.46
2018-03-20T01:45:25.857Z,-0.55
2018-03-20T01:46:25.882Z,-0.44
2018-03-20T01:47:25.908Z,-0.37
2018-03-20T01:48:25.933Z,-0.61
2018-03-20T01:49:25.956Z,-0.54
2018-03-20T01:50:25.980Z,-0.57
2018-03-20T01:51:26.006Z,-0.55
2018-03-20T01:52:26.032Z,-0.54
2018-03-20T01:53:26.053Z,-0.51
2018-03-20T01:54:26.079Z,-0.61
2018-03-20T01:55:26.105Z,-0.54
2018-03-20T01:56:26.133Z,-0.49
2018-03-20T01:57:26.153Z,-0.42
2018-03-20T01:58:26.177Z,-0.36
2018-03-20T01:59:26.203Z,-0.34
2018-03-20T02:00:26.227Z,-0.33
2018-03-20T02:01:26.251Z,-0.28
2018-03-20T02:02:26.275Z,-0.33
2018-03-20T02:03:26.305Z,-0.40
2018-03-20T02:04:26.325Z,-0.43
2018-03-20T02:05:26.349Z,-0.33
2018-03-20T02:06:26.373Z,-0.39
2018-03-20T02:07:26.397Z,-0.37
2018-03-20T02:08:26.422Z,-0.42
2018-03-20T02:09:26.449Z,-0.43
2018-03-20T02:10:26.471Z,-0.43
2018-03-20T02:11:26.498Z,-0.39
2018-03-20T02:12:26.522Z,-0.46
2018-03-20T02:13:26.545Z,-0.47
2018-03-20T02:14:26.573Z,-0.57
2018-03-20T02:15:26.594Z,-0.49
2018-03-20T02:16:26.627Z,-0.52
2018-03-20T02:17:26.643Z,-0.64
2018-03-20T02:18:26.667Z,-0.64
2018-03-20T02:19:26.691Z,-0.65
2018-03-20T02:20:26.716Z,-0.61
2018-03-20T02:21:26.743Z,-0.57
2018-03-20T02:22:26.765Z,-0.67
2018-03-20T02:23:26.790Z,-0.72
2018-03-20T02:24:26.816Z,-0.72
2018-03-20T02:25:26.843Z,-0.78
2018-03-20T02:26:26.862Z,-0.73
2018-03-20T02:27:26.887Z,-0.76
2018-03-20T02:28:26.913Z,-0.80
2018-03-20T02:29:26.935Z,-0.83
2018-03-20T02:30:26.959Z,-0.95
2018-03-20T02:31:26.985Z,-0.94
2018-03-20T02:32:27.015Z,-0.95
2018-03-20T02:33:27.032Z,-1.05
2018-03-20T02:34:27.059Z,-1.13
2018-03-20T02:35:27.085Z,-1.13
2018-03-20T02:36:27.108Z,-1.15
2018-03-20T02:37:27.130Z,-1.20
2018-03-20T02:38:27.156Z,-1.10
2018-03-20T02:39:27.179Z,-1.16
2018-03-20T02:40:27.203Z,-1.27
2018-03-20T02:41:27.225Z,-1.20
2018-03-20T02:42:27.254Z,-1.28
2018-03-20T02:43:27.277Z,-1.38
2018-03-20T02:44:27.298Z,-1.48
2018-03-20T02:45:27.323Z,-1.45
2018-03-20T02:46:27.346Z,-1.41
2018-03-20T02:47:27.372Z,-1.43
2018-03-20T02:48:27.407Z,-1.49
2018-03-20T02:49:27.418Z,-1.46
2018-03-20T02:50:27.443Z,-1.54
2018-03-20T02:51:27.471Z,-1.46
2018-03-20T02:52:27.493Z,-1.51
2018-03-20T02:53:27.515Z,-1.54
2018-03-20T02:54:27.537Z,-1.54
2018-03-20T02:55:27.561Z,-1.51
2018-03-20T02:56:27.586Z,-1.51
2018-03-20T02:57:27.609Z,-1.51
2018-03-20T02:58:27.634Z,-1.49
2018-03-20T02:59:27.657Z,-1.54
2018-03-20T03:00:27.680Z,-1.48
2018-03-20T03:01:27.703Z,-1.56
2018-03-20T03:02:27.729Z,-1.58
2018-03-20T03:03:27.768Z,-1.55
2018-03-20T03:04:27.777Z,-1.55
2018-03-20T03:05:27.802Z,-1.56
2018-03-20T03:06:27.824Z,-1.56
2018-03-20T03:07:27.848Z,-1.51
2018-03-20T03:08:27.872Z,-1.62
2018-03-20T03:09:27.895Z,-1.46
2018-03-20T03:10:27.933Z,-1.62
2018-03-20T03:11:27.943Z,-1.45
2018-03-20T03:12:27.967Z,-1.45
2018-03-20T03:13:27.991Z,-1.48
2018-03-20T03:14:28.015Z,-1.41
2018-03-20T03:15:28.039Z,-1.54
2018-03-20T03:16:28.063Z,-1.46
2018-03-20T03:17:28.085Z,-1.41
2018-03-20T03:18:28.114Z,-1.49
2018-03-20T03:19:28.134Z,-1.51
2018-03-20T03:20:28.159Z,-1.56
2018-03-20T03:21:28.180Z,-1.62
2018-03-20T03:22:28.205Z,-1.66
2018-03-20T03:23:28.228Z,-1.61
2018-03-20T03:24:28.253Z,-1.61
2018-03-20T03:25:28.280Z,-1.61
2018-03-20T03:26:28.356Z,-1.40
2018-03-20T03:27:28.325Z,-1.35
2018-03-20T03:28:28.348Z,-1.34
2018-03-20T03:29:28.370Z,-1.22
2018-03-20T03:30:28.396Z,-1.20
2018-03-20T03:31:28.421Z,-1.15
2018-03-20T03:32:28.442Z,-1.15
2018-03-20T03:33:28.465Z,-1.15
2018-03-20T03:34:28.489Z,-1.20
2018-03-20T03:35:28.513Z,-1.31
2018-03-20T03:36:28.540Z,-1.35
2018-03-20T03:37:28.579Z,-1.43
2018-03-20T03:38:28.584Z,-1.46
2018-03-20T03:39:28.607Z,-1.56
2018-03-20T03:40:28.631Z,-1.54
2018-03-20T03:41:28.654Z,-1.70
2018-03-20T03:42:28.678Z,-1.76
2018-03-20T03:43:28.701Z,-1.85
2018-03-20T03:44:28.725Z,-1.74
2018-03-20T03:45:28.748Z,-1.88
2018-03-20T03:46:28.770Z,-1.90
2018-03-20T03:47:28.796Z,-1.90
2018-03-20T03:48:28.819Z,-1.82
2018-03-20T03:49:28.842Z,-1.95
2018-03-20T03:50:28.865Z,-2.00
2018-03-20T03:51:28.890Z,-1.95
2018-03-20T03:52:28.913Z,-2.03
2018-03-20T03:53:28.935Z,-1.92
2018-03-20T03:54:28.959Z,-2.08
2018-03-20T03:55:28.983Z,-2.00
2018-03-20T03:56:29.005Z,-2.02
2018-03-20T03:57:29.029Z,-1.97
2018-03-20T03:58:29.053Z,-2.02
2018-03-20T03:59:29.077Z,-2.12
2018-03-20T04:00:29.100Z,-2.12
2018-03-20T04:01:29.167Z,-2.13
2018-03-20T04:02:29.147Z,-2.13
2018-03-20T04:03:29.169Z,-2.16
2018-03-20T04:04:29.194Z,-2.27
2018-03-20T04:05:29.215Z,-2.20
2018-03-20T04:06:29.239Z,-2.39
2018-03-20T04:07:29.264Z,-2.30
2018-03-20T04:08:29.288Z,-2.37
2018-03-20T04:09:29.308Z,-2.32
2018-03-20T04:10:29.333Z,-2.37
2018-03-20T04:11:29.356Z,-2.43
2018-03-20T04:12:29.380Z,-2.45
2018-03-20T04:13:29.406Z,-2.40
2018-03-20T04:14:29.425Z,-2.26
2018-03-20T04:15:29.450Z,-2.24
2018-03-20T04:16:29.473Z,-2.40
2018-03-20T04:17:29.499Z,-2.46
2018-03-20T04:18:29.518Z,-2.45
2018-03-20T04:19:29.543Z,-2.37
2018-03-20T04:20:29.566Z,-2.42
2018-03-20T04:21:29.589Z,-2.29
2018-03-20T04:22:29.614Z,-2.30
2018-03-20T04:23:29.635Z,-2.32
2018-03-20T04:24:29.660Z,-2.15
2018-03-20T04:25:29.684Z,-2.26
2018-03-20T04:26:29.706Z,-2.27
2018-03-20T04:27:29.732Z,-2.18
2018-03-20T04:28:29.753Z,-2.20
2018-03-20T04:29:29.774Z,-2.18
2018-03-20T04:30:29.799Z,-2.16
2018-03-20T04:31:29.822Z,-2.13
2018-03-20T04:32:29.846Z,-2.21
2018-03-20T04:33:29.868Z,-2.13
2018-03-20T04:34:29.890Z,-2.20
2018-03-20T04:35:29.916Z,-2.18
2018-03-20T04:36:29.939Z,-2.06
2018-03-20T04:37:29.962Z,-2.06
2018-03-20T04:38:29.985Z,-2.05
2018-03-20T04:39:30.008Z,-2.10
2018-03-20T04:40:30.033Z,-2.00
2018-03-20T04:41:30.055Z,-2.03
2018-03-20T04:42:30.079Z,-2.03
2018-03-20T04:43:30.102Z,-1.88
2018-03-20T04:44:30.126Z,-1.79
2018-03-20T04:45:30.149Z,-1.73
2018-03-20T04:46:30.169Z,-1.62
2018-03-20T04:47:30.193Z,-1.72
2018-03-20T04:48:30.217Z,-1.61
2018-03-20T04:49:30.241Z,-1.67
2018-03-20T04:50:30.266Z,-1.67
2018-03-20T04:51:30.286Z,-1.64
2018-03-20T04:52:30.311Z,-1.74
2018-03-20T04:53:30.334Z,-1.79
2018-03-20T04:54:30.360Z,-1.87
2018-03-20T04:55:30.380Z,-1.85
2018-03-20T04:56:30.403Z,-1.91
2018-03-20T04:57:30.427Z,-1.91
2018-03-20T04:58:30.450Z,-2.00
2018-03-20T04:59:30.472Z,-1.97
2018-03-20T05:00:30.494Z,-2.06
2018-03-20T05:01:30.518Z,-2.03
2018-03-20T05:02:30.541Z,-2.15
2018-03-20T05:03:30.565Z,-2.12
2018-03-20T05:04:30.588Z,-2.18
2018-03-20T05:05:30.609Z,-2.13
2018-03-20T05:06:30.635Z,-2.12
2018-03-20T05:07:30.657Z,-2.13
2018-03-20T05:08:30.679Z,-2.16
2018-03-20T05:09:30.703Z,-2.06
2018-03-20T05:10:30.726Z,-2.13
2018-03-20T05:11:30.749Z,-2.24
2018-03-20T05:12:30.772Z,-2.09
2018-03-20T05:13:30.796Z,-2.16
2018-03-20T05:14:30.817Z,-2.16
2018-03-20T05:15:30.840Z,-2.12
2018-03-20T05:16:30.867Z,-2.13
2018-03-20T05:17:30.886Z,-2.23
2018-03-20T05:18:30.908Z,-2.34
2018-03-20T05:19:30.934Z,-2.30
2018-03-20T05:20:30.955Z,-2.32
2018-03-20T05:21:30.977Z,-2.30
2018-03-20T05:22:31.001Z,-2.39
2018-03-20T05:23:31.026Z,-2.46
2018-03-20T05:24:31.049Z,-2.45
2018-03-20T05:25:31.069Z,-2.52
2018-03-20T05:26:31.093Z,-2.49
2018-03-20T05:27:31.116Z,-2.52
2018-03-20T05:28:31.167Z,-2.49
2018-03-20T05:29:31.161Z,-2.46
2018-03-20T05:30:31.187Z,-2.53
2018-03-20T05:31:31.208Z,-2.52
2018-03-20T05:32:31.236Z,-2.58
2018-03-20T05:33:31.252Z,-2.68
2018-03-20T05:34:31.285Z,-2.73
2018-03-20T05:35:31.299Z,-2.74
2018-03-20T05:36:31.322Z,-2.66
2018-03-20T05:37:31.345Z,-2.73
2018-03-20T05:38:31.369Z,-2.78
2018-03-20T05:39:31.391Z,-2.73
2018-03-20T05:40:31.416Z,-2.70
2018-03-20T05:41:31.443Z,-2.64
2018-03-20T05:42:31.459Z,-2.64
2018-03-20T05:43:31.484Z,-2.68
2018-03-20T05:44:31.511Z,-2.67
2018-03-20T05:45:31.528Z,-2.60
2018-03-20T05:46:31.552Z,-2.49
2018-03-20T05:47:31.574Z,-2.58
2018-03-20T05:48:31.596Z,-2.49
2018-03-20T05:49:31.619Z,-2.49
2018-03-20T05:50:31.644Z,-2.48
2018-03-20T05:51:31.666Z,-2.53
2018-03-20T05:52:31.689Z,-2.48
2018-03-20T05:53:31.712Z,-2.48
2018-03-20T05:54:31.734Z,-2.45
2018-03-20T05:55:31.759Z,-2.49
2018-03-20T05:56:31.780Z,-2.43
2018-03-20T05:57:31.804Z,-2.48
2018-03-20T05:58:31.831Z,-2.43
2018-03-20T05:59:31.849Z,-2.43
2018-03-20T06:00:31.873Z,-2.37
2018-03-20T06:01:31.896Z,-2.32
2018-03-20T06:02:31.917Z,-2.29
2018-03-20T06:03:31.942Z,-2.34
2018-03-20T06:04:31.965Z,-2.30
2018-03-20T06:05:31.989Z,-2.24
2018-03-20T06:06:32.009Z,-2.26
2018-03-20T06:07:32.035Z,-2.13
2018-03-20T06:08:32.062Z,-2.15
2018-03-20T06:09:32.080Z,-2.18
2018-03-20T06:10:32.111Z,-2.05
2018-03-20T06:11:32.125Z,-2.00
2018-03-20T06:12:32.149Z,-1.88
2018-03-20T06:13:32.174Z,-1.85
2018-03-20T06:14:32.195Z,-1.84
2018-03-20T06:15:32.218Z,-1.72
2018-03-20T06:16:32.241Z,-1.61
2018-03-20T06:17:32.264Z,-1.54
2018-03-20T06:18:32.289Z,-1.48
2018-03-20T06:19:32.314Z,-1.51
2018-03-20T06:20:32.333Z,-1.37
2018-03-20T06:21:32.358Z,-1.16
2018-03-20T06:22:32.380Z,-1.22
2018-03-20T06:23:32.404Z,-1.22
2018-03-20T06:24:32.434Z,-1.35
2018-03-20T06:25:32.449Z,-1.22
2018-03-20T06:26:32.472Z,-1.20
2018-03-20T06:27:32.495Z,-1.19
2018-03-20T06:28:32.518Z,-1.20
2018-03-20T06:29:32.541Z,-1.25
2018-03-20T06:30:32.566Z,-1.22
2018-03-20T06:31:32.588Z,-1.25
2018-03-20T06:32:32.611Z,-1.17
2018-03-20T06:33:32.634Z,-1.20
2018-03-20T06:34:32.657Z,-1.17
2018-03-20T06:35:32.680Z,-1.22
2018-03-20T06:36:32.704Z,-1.15
2018-03-20T06:37:32.727Z,-1.17
2018-03-20T06:38:32.754Z,-1.23
2018-03-20T06:39:32.774Z,-1.15
2018-03-20T06:40:32.797Z,-1.10
2018-03-20T06:41:32.821Z,-0.94
2018-03-20T06:42:32.846Z,-0.67
2018-03-20T06:43:32.867Z,-0.62
2018-03-20T06:44:32.892Z,-0.46
2018-03-20T06:45:32.928Z,-0.22
2018-03-20T06:46:32.937Z,-0.05
2018-03-20T06:47:32.960Z,0.03
2018-03-20T06:48:32.983Z,0.31
2018-03-20T06:49:33.007Z,0.14
2018-03-20T06:50:33.030Z,0.32
2018-03-20T06:51:33.060Z,0.41
2018-03-20T06:52:33.079Z,0.49
2018-03-20T06:53:33.100Z,0.53
2018-03-20T06:54:33.125Z,0.75
2018-03-20T06:55:33.152Z,0.70
2018-03-20T06:56:33.172Z,0.50
2018-03-20T06:57:33.194Z,0.50
2018-03-20T06:58:33.220Z,0.49
2018-03-20T06:59:33.259Z,0.66
2018-03-20T07:00:33.265Z,0.87
2018-03-20T07:01:33.290Z,0.83
2018-03-20T07:02:33.313Z,0.97
2018-03-20T07:03:33.337Z,0.88
2018-03-20T07:04:33.367Z,0.80
2018-03-20T07:05:33.384Z,0.96
2018-03-20T07:06:33.408Z,0.98
2018-03-20T07:07:33.435Z,1.09
2018-03-20T07:08:33.457Z,1.12
2018-03-20T07:09:33.480Z,0.97
2018-03-20T07:10:33.502Z,1.12
2018-03-20T07:11:33.528Z,0.78
2018-03-20T07:12:33.552Z,0.73
2018-03-20T07:13:33.575Z,0.58
2018-03-20T07:14:33.601Z,0.46
2018-03-20T07:15:33.625Z,0.39
2018-03-20T07:16:33.648Z,0.26
2018-03-20T07:17:33.671Z,0.17
2018-03-20T07:18:33.696Z,0.00
2018-03-20T07:19:33.720Z,0.08
2018-03-20T07:20:33.745Z,-0.05
2018-03-20T07:21:33.768Z,-0.07
2018-03-20T07:22:33.792Z,-0.10
2018-03-20T07:23:33.815Z,-0.10
2018-03-20T07:24:33.841Z,-0.11
2018-03-20T07:25:33.865Z,0.04
2018-03-20T07:26:33.888Z,0.15
2018-03-20T07:27:33.914Z,0.13
2018-03-20T07:28:33.937Z,0.39
2018-03-20T07:29:33.961Z,0.69
2018-03-20T07:30:33.986Z,0.73
2018-03-20T07:31:34.010Z,0.88
2018-03-20T07:32:34.036Z,0.79
2018-03-20T07:33:34.059Z,0.49
2018-03-20T07:34:34.083Z,0.65
2018-03-20T07:35:34.107Z,0.75
2018-03-20T07:36:34.133Z,0.86
2018-03-20T07:37:34.159Z,0.73
2018-03-20T07:38:34.182Z,0.55
2018-03-20T07:39:34.207Z,0.60
2018-03-20T07:40:34.232Z,0.69
2018-03-20T07:41:34.256Z,0.80
2018-03-20T07:42:34.280Z,0.93
2018-03-20T07:43:34.306Z,0.75
2018-03-20T07:44:34.331Z,0.75
2018-03-20T07:45:34.355Z,0.51
2018-03-20T07:46:34.380Z,0.38
2018-03-20T07:47:34.409Z,0.51
2018-03-20T07:48:34.431Z,0.57
2018-03-20T07:49:34.455Z,0.83
2018-03-20T07:50:34.480Z,0.96
2018-03-20T07:51:34.507Z,1.06
2018-03-20T07:52:34.531Z,1.11
2018-03-20T07:53:34.557Z,1.22
2018-03-20T07:54:34.584Z,1.27
2018-03-20T07:55:34.606Z,1.23
2018-03-20T07:56:34.631Z,1.36
2018-03-20T07:57:34.657Z,1.47
2018-03-20T07:58:34.682Z,1.37
2018-03-20T07:59:34.711Z,1.36
2018-03-20T08:00:34.734Z,1.34
2018-03-20T08:01:34.807Z,1.48
2018-03-20T08:02:34.784Z,1.63
2018-03-20T08:03:34.810Z,1.52
2018-03-20T08:04:34.836Z,1.77
2018-03-20T08:05:34.861Z,1.98
2018-03-20T08:06:34.887Z,2.17
2018-03-20T08:07:34.913Z,2.31
2018-03-20T08:08:34.940Z,2.43
2018-03-20T08:09:34.965Z,2.27
2018-03-20T08:10:34.990Z,2.25
2018-03-20T08:11:35.017Z,2.23
2018-03-20T08:12:35.046Z,2.16
2018-03-20T08:13:35.069Z,2.24
2018-03-20T08:14:35.099Z,2.36
2018-03-20T08:15:35.121Z,2.75
2018-03-20T08:16:35.148Z,2.61
2018-03-20T08:17:35.174Z,2.74
2018-03-20T08:18:35.203Z,2.96
2018-03-20T08:19:35.226Z,3.17
2018-03-20T08:20:35.254Z,3.55
2018-03-20T08:21:35.283Z,3.76
2018-03-20T08:22:35.308Z,3.79
2018-03-20T08:23:35.333Z,3.48
2018-03-20T08:24:35.360Z,3.52
2018-03-20T08:25:35.386Z,3.40
2018-03-20T08:26:35.412Z,3.28
2018-03-20T08:27:35.440Z,3.31
2018-03-20T08:28:35.466Z,3.28
2018-03-20T08:29:35.492Z,3.24
2018-03-20T08:30:35.520Z,3.18
2018-03-20T08:31:35.547Z,3.40
2018-03-20T08:32:35.574Z,3.35
2018-03-20T08:33:35.600Z,3.17
2018-03-20T08:34:35.629Z,3.24
2018-03-20T08:35:35.655Z,3.29
2018-03-20T08:36:35.687Z,3.42
2018-03-20T08:37:35.709Z,3.35
2018-03-20T08:38:35.739Z,3.28
2018-03-20T08:39:35.764Z,3.55
2018-03-20T08:40:35.792Z,3.55
2018-03-20T08:41:35.819Z,3.83
2018-03-20T08:42:35.849Z,3.88
2018-03-20T08:43:35.879Z,3.47
2018-03-20T08:44:35.903Z,3.28
2018-03-20T08:45:35.930Z,3.47
2018-03-20T08:46:35.981Z,3.70
2018-03-20T08:47:35.985Z,4.14
2018-03-20T08:48:36.014Z,4.26
2018-03-20T08:49:36.042Z,5.03
2018-03-20T08:50:36.073Z,6.00
2018-03-20T08:51:36.099Z,7.25
2018-03-20T08:52:36.154Z,8.16
2018-03-20T08:53:36.156Z,9.40
2018-03-20T08:54:36.185Z,10.63
2018-03-20T08:55:36.213Z,11.42
2018-03-20T08:56:36.242Z,12.12
2018-03-20T08:57:36.271Z,13.01
2018-03-20T08:58:36.301Z,13.39
2018-03-20T08:59:36.330Z,13.63
2018-03-20T09:00:36.363Z,14.09
2018-03-20T09:01:36.391Z,14.75
2018-03-20T09:02:36.423Z,15.27
2018-03-20T09:03:36.452Z,16.00
2018-03-20T09:04:36.484Z,15.53
2018-03-20T09:05:36.516Z,15.71
2018-03-20T09:06:36.547Z,15.02
2018-03-20T09:07:36.580Z,14.36
2018-03-20T09:08:36.616Z,14.69
2018-03-20T09:09:36.645Z,14.25
2018-03-20T09:10:36.678Z,14.28
2018-03-20T09:11:36.712Z,14.18
2018-03-20T09:12:36.798Z,14.04
2018-03-20T09:13:36.778Z,14.29
2018-03-20T09:14:36.813Z,13.75
2018-03-20T09:15:36.848Z,14.65
2018-03-20T09:16:36.884Z,13.99
2018-03-20T09:17:36.917Z,14.73
2018-03-20T09:18:36.953Z,15.36
2018-03-20T09:19:36.988Z,16.20
2018-03-20T09:20:37.025Z,16.38
2018-03-20T09:21:37.061Z,16.39
2018-03-20T09:22:37.096Z,16.25
2018-03-20T09:23:37.132Z,15.34
2018-03-20T09:24:37.169Z,15.27
2018-03-20T09:25:37.205Z,14.94
2018-03-20T09:26:37.244Z,15.51
2018-03-20T09:27:37.279Z,15.44
2018-03-20T09:28:37.317Z,14.29
2018-03-20T09:29:37.354Z,13.38
2018-03-20T09:30:37.391Z,12.20
2018-03-20T09:31:37.430Z,12.65
2018-03-20T09:32:37.469Z,12.47
2018-03-20T09:33:37.505Z,11.80
2018-03-20T09:34:37.543Z,12.68
2018-03-20T09:35:37.583Z,12.56
2018-03-20T09:36:37.620Z,13.10
2018-03-20T09:37:37.658Z,14.17
2018-03-20T09:38:37.697Z,13.92
2018-03-20T09:39:37.736Z,13.73
2018-03-20T09:40:37.774Z,12.95
2018-03-20T09:41:37.814Z,13.26
2018-03-20T09:42:37.854Z,13.96
2018-03-20T09:43:37.891Z,14.98
2018-03-20T09:44:37.931Z,13.75
2018-03-20T09:45:37.970Z,13.12
2018-03-20T09:46:38.010Z,12.10
2018-03-20T09:47:38.052Z,11.98
2018-03-20T09:48:38.092Z,12.20
2018-03-20T09:49:38.131Z,11.79
2018-03-20T09:50:38.170Z,11.79
2018-03-20T09:51:38.210Z,12.35
2018-03-20T09:52:38.251Z,13.10
2018-03-20T09:53:38.292Z,13.88
2018-03-20T09:54:38.335Z,15.16
2018-03-20T09:55:38.372Z,14.60
2018-03-20T09:56:38.411Z,14.69
2018-03-20T09:57:38.452Z,15.83
2018-03-20T09:58:38.500Z,14.72
2018-03-20T09:59:38.534Z,13.82
2018-03-20T10:00:38.577Z,14.88
2018-03-20T10:01:38.620Z,14.60
2018-03-20T10:02:38.655Z,13.95
2018-03-20T10:03:38.697Z,14.58
2018-03-20T10:04:38.739Z,15.86
2018-03-20T10:05:38.777Z,16.49
2018-03-20T10:06:38.819Z,17.38
2018-03-20T10:07:38.862Z,18.12
2018-03-20T10:08:38.903Z,18.88
2018-03-20T10:09:38.948Z,19.19
2018-03-20T10:10:38.986Z,19.31
2018-03-20T10:11:39.028Z,19.78
2018-03-20T10:12:39.071Z,18.80
2018-03-20T10:13:39.112Z,18.48
2018-03-20T10:14:39.158Z,18.32
2018-03-20T10:15:39.200Z,17.70
2018-03-20T10:16:39.239Z,18.07
2018-03-20T10:17:39.283Z,18.35
2018-03-20T10:18:39.326Z,18.88
2018-03-20T10:19:39.368Z,18.52
2018-03-20T10:20:39.412Z,18.98
2018-03-20T10:21:39.454Z,19.55
2018-03-20T10:22:39.497Z,19.80
2018-03-20T10:23:39.540Z,17.11
2018-03-20T10:24:39.584Z,17.72
2018-03-20T10:25:39.627Z,16.94
2018-03-20T10:26:39.671Z,16.34
2018-03-20T10:27:39.714Z,17.51
2018-03-20T10:28:39.758Z,17.90
2018-03-20T10:29:39.800Z,17.18
2018-03-20T10:30:39.849Z,18.08
2018-03-20T10:31:39.887Z,17.54
2018-03-20T10:32:39.932Z,18.87
2018-03-20T10:33:39.974Z,18.11
2018-03-20T10:34:40.022Z,18.25
2018-03-20T10:35:40.064Z,19.16
2018-03-20T10:36:40.108Z,19.13
2018-03-20T10:37:40.151Z,19.56
2018-03-20T10:38:40.200Z,19.76
2018-03-20T10:39:40.240Z,18.47
2018-03-20T10:40:40.284Z,17.25
2018-03-20T10:41:40.330Z,15.65
2018-03-20T10:42:40.374Z,15.34
2018-03-20T10:43:40.421Z,15.23
2018-03-20T10:44:40.468Z,15.64
2018-03-20T10:45:40.513Z,14.22
2018-03-20T10:46:40.560Z,14.21
2018-03-20T10:47:40.602Z,14.17
2018-03-20T10:48:40.648Z,14.46
2018-03-20T10:49:40.694Z,14.94
2018-03-20T10:50:40.739Z,15.71
2018-03-20T10:51:40.783Z,16.57
2018-03-20T10:52:40.831Z,15.74
2018-03-20T10:53:40.918Z,15.14
2018-03-20T10:54:40.921Z,15.51
2018-03-20T10:55:40.970Z,16.07
2018-03-20T10:56:41.023Z,14.88
2018-03-20T10:57:41.061Z,16.91
2018-03-20T10:58:41.104Z,17.07
2018-03-20T10:59:41.151Z,17.59
2018-03-20T11:00:41.199Z,16.02
2018-03-20T11:01:41.241Z,15.10
2018-03-20T11:02:41.288Z,15.44
2018-03-20T11:03:41.335Z,15.87
2018-03-20T11:04:41.381Z,17.07
2018-03-20T11:05:41.426Z,15.97
2018-03-20T11:06:41.471Z,16.11
2018-03-20T11:07:41.520Z,14.65
2018-03-20T11:08:41.565Z,14.94
2018-03-20T11:09:41.609Z,15.31
2018-03-20T11:10:41.657Z,15.19
2018-03-20T11:11:41.704Z,15.21
2018-03-20T11:12:41.749Z,13.97
2018-03-20T11:13:41.797Z,14.70
2018-03-20T11:14:41.845Z,15.47
2018-03-20T11:15:41.888Z,15.84
2018-03-20T11:16:41.935Z,14.80
2018-03-20T11:17:41.980Z,13.64
2018-03-20T11:18:42.027Z,13.99
2018-03-20T11:19:42.073Z,14.50
2018-03-20T11:20:42.119Z,14.18
2018-03-20T11:21:42.165Z,13.73
2018-03-20T11:22:42.211Z,14.24
2018-03-20T11:23:42.257Z,15.11
2018-03-20T11:24:42.358Z,14.18
2018-03-20T11:25:42.347Z,14.43
2018-03-20T11:26:42.393Z,14.39
2018-03-20T11:27:42.440Z,15.41
2018-03-20T11:28:42.486Z,15.56
2018-03-20T11:29:42.530Z,15.72
2018-03-20T11:30:42.577Z,14.57
2018-03-20T11:31:42.624Z,15.56
2018-03-20T11:32:42.669Z,15.13
2018-03-20T11:33:42.714Z,15.17
2018-03-20T11:34:42.760Z,15.11
2018-03-20T11:35:42.805Z,15.14
2018-03-20T11:36:42.852Z,14.73
2018-03-20T11:37:42.898Z,14.68
2018-03-20T11:38:42.948Z,14.24
2018-03-20T11:39:42.990Z,13.85
2018-03-20T11:40:43.037Z,14.21
2018-03-20T11:41:43.082Z,15.17
2018-03-20T11:42:43.128Z,15.21
2018-03-20T11:43:43.175Z,15.62
2018-03-20T11:44:43.221Z,15.47
2018-03-20T11:45:43.267Z,16.30
2018-03-20T11:46:43.314Z,16.41
2018-03-20T11:47:43.360Z,17.63
2018-03-20T11:48:43.406Z,18.32
2018-03-20T11:49:43.458Z,19.59
2018-03-20T11:50:43.498Z,19.19
2018-03-20T11:51:43.543Z,20.35
2018-03-20T11:52:43.592Z,18.37
2018-03-20T11:53:43.641Z,18.78
2018-03-20T11:54:43.685Z,16.96
2018-03-20T11:55:43.733Z,15.06
2018-03-20T11:56:43.780Z,13.62
2018-03-20T11:57:43.826Z,14.92
2018-03-20T11:58:43.873Z,14.27
2018-03-20T11:59:43.920Z,14.06
2018-03-20T12:00:43.968Z,12.70
2018-03-20T12:01:44.012Z,11.90
2018-03-20T12:02:44.058Z,11.94
2018-03-20T12:03:44.105Z,12.68
2018-03-20T12:04:44.150Z,15.92
2018-03-20T12:05:44.194Z,15.32
2018-03-20T12:06:44.242Z,12.68
2018-03-20T12:07:44.283Z,14.28
2018-03-20T12:08:44.328Z,15.76
2018-03-20T12:09:44.370Z,16.52
2018-03-20T12:10:44.414Z,16.28
2018-03-20T12:11:44.460Z,16.33
2018-03-20T12:12:44.505Z,15.96
2018-03-20T12:13:44.547Z,15.50
2018-03-20T12:14:44.590Z,14.72
2018-03-20T12:15:44.634Z,13.71
2018-03-20T12:16:44.677Z,14.14
2018-03-20T12:17:44.719Z,15.20
2018-03-20T12:18:44.765Z,14.42
2018-03-20T12:19:44.805Z,14.42
2018-03-20T12:20:44.849Z,16.14
2018-03-20T12:21:44.890Z,16.94
2018-03-20T12:22:44.932Z,14.15
2018-03-20T12:23:44.975Z,13.19
2018-03-20T12:24:45.021Z,13.44
2018-03-20T12:25:45.056Z,14.72
2018-03-20T12:26:45.098Z,15.13
2018-03-20T12:27:45.140Z,13.95
2018-03-20T12:28:45.182Z,11.90
2018-03-20T12:29:45.222Z,11.99
2018-03-20T12:30:45.264Z,12.01
2018-03-20T12:31:45.307Z,12.17
2018-03-20T12:32:45.346Z,11.76
2018-03-20T12:33:45.385Z,11.39
2018-03-20T12:34:45.428Z,10.84
2018-03-20T12:35:45.466Z,10.51
2018-03-20T12:36:45.505Z,10.26
2018-03-20T12:37:45.604Z,9.83
2018-03-20T12:38:45.582Z,9.90
2018-03-20T12:39:45.622Z,9.65
2018-03-20T12:40:45.661Z,9.26
2018-03-20T12:41:45.698Z,8.65
2018-03-20T12:42:45.736Z,8.16
2018-03-20T12:43:45.774Z,7.79
2018-03-20T12:44:45.812Z,7.60
2018-03-20T12:45:45.849Z,7.52
2018-03-20T12:46:45.945Z,7.79
2018-03-20T12:47:45.923Z,7.46
2018-03-20T12:48:45.960Z,8.00
2018-03-20T12:49:45.995Z,8.33
2018-03-20T12:50:46.032Z,8.48
2018-03-20T12:51:46.067Z,8.56
2018-03-20T12:52:46.103Z,8.73
2018-03-20T12:53:46.137Z,8.87
2018-03-20T12:54:46.172Z,8.92
2018-03-20T12:55:46.207Z,8.68
2018-03-20T12:56:46.242Z,8.44
2018-03-20T12:57:46.296Z,7.98
2018-03-20T12:58:46.312Z,8.19
2018-03-20T12:59:46.344Z,7.82
2018-03-20T13:00:46.378Z,7.74